In Rescue
 
Open Full Screen Window  High Contrast Mode
Wind Gusting 15 knots
09
June 22, 2024 8:57 PM EDT
Weather Information
Wind Direction
  220 °
Wind Speed
  09 kt (10 mph)
Wind Gust
  15 kt (17 mph)
Variable Wind
190°
260°
Altimeter
29.67 in
Visibility
10 SM
Temperature
22° C
72° F
Dewpoint
19° C
66° F
Humidity
83%
Sky Condition
Overcast @ 6,500 ft
Broken @ 3,700 ft
Broken @ 2,300 ft
MVFR

METAR KFKS 230057Z AUTO 22009G15KT 190V260 10SM BKN023 BKN037 OVC065 22/19 A2967 RMK AO2 T02150185

FAA Disclaimer: The data displayed is for advisory purposes only and is not to be used for flight planning or operations.